Time;durP1;ratioP1;P1;durP2;ratioP2;P2;SDS_P1;SDS_P2;PMS_P1;PMS_P2;Temp;Humidity;BMP_temperature;BMP_pressure;BME280_temperature;BME280_humidity;BME280_pressure;Samples;Min_cycle;Max_cycle;Signal;HPM_P1;HPM_P2
2021/06/16 00:01:35;;;;;;;3.93;3.40;;;20.10;73.90;;;;;;4903348;29;20517;-83
2021/06/16 00:04:04;;;;;;;3.47;3.17;;;20.10;73.90;;;;;;4903546;29;20464;-83
2021/06/16 00:06:30;;;;;;;3.77;3.47;;;20.10;74.20;;;;;;4903594;29;20463;-83
2021/06/16 00:08:57;;;;;;;3.83;3.53;;;20.10;75.10;;;;;;4903755;29;20476;-82
2021/06/16 00:11:26;;;;;;;3.93;3.63;;;20.10;75.50;;;;;;4903628;29;20462;-83
2021/06/16 00:13:55;;;;;;;3.30;3.10;;;20.10;76.20;;;;;;4903853;29;20830;-83
2021/06/16 00:16:22;;;;;;;3.57;3.27;;;20.10;76.60;;;;;;4903522;29;20468;-83
2021/06/16 00:18:49;;;;;;;4.33;3.83;;;20.00;76.90;;;;;;4903099;29;20495;-83
2021/06/16 00:21:17;;;;;;;4.03;3.80;;;20.00;77.30;;;;;;4903817;29;20871;-82
2021/06/16 00:23:44;;;;;;;3.70;3.40;;;20.00;77.40;;;;;;4903330;29;20440;-82
2021/06/16 00:26:11;;;;;;;6.00;5.50;;;20.00;77.30;;;;;;4903319;29;20463;-83
2021/06/16 00:28:37;;;;;;;4.53;4.20;;;20.00;77.40;;;;;;4903261;29;20487;-83
2021/06/16 00:31:05;;;;;;;4.60;4.20;;;19.90;77.60;;;;;;4903335;29;20461;-83
2021/06/16 00:33:32;;;;;;;3.80;3.50;;;19.90;77.70;;;;;;4903422;29;20835;-83
2021/06/16 00:35:59;;;;;;;4.23;3.93;;;19.90;78.20;;;;;;4903521;29;20470;-83
2021/06/16 00:38:27;;;;;;;5.07;4.30;;;19.90;78.70;;;;;;4903409;29;20476;-83
2021/06/16 00:40:53;;;;;;;4.90;4.40;;;19.80;79.10;;;;;;4902507;29;20495;-83
2021/06/16 00:43:20;;;;;;;4.70;4.30;;;19.80;79.60;;;;;;4902678;29;20452;-83
2021/06/16 00:45:47;;;;;;;4.40;4.00;;;19.80;79.80;;;;;;4902973;29;20457;-83
2021/06/16 00:48:15;;;;;;;4.10;3.90;;;19.80;80.10;;;;;;4902981;29;20488;-82
2021/06/16 00:50:43;;;;;;;3.37;3.17;;;19.70;80.50;;;;;;4902703;29;20535;-83
2021/06/16 00:53:09;;;;;;;4.90;4.60;;;19.70;80.90;;;;;;4902780;29;20463;-83
2021/06/16 00:55:38;;;;;;;3.83;3.53;;;19.70;81.40;;;;;;4903154;29;20467;-83
2021/06/16 00:58:06;;;;;;;3.80;3.50;;;19.70;81.70;;;;;;4903612;29;20466;-83
2021/06/16 01:00:38;;;;;;;3.80;3.50;;;19.60;82.00;;;;;;4902798;29;20900;-80
2021/06/16 01:03:11;;;;;;;4.90;3.73;;;19.60;81.80;;;;;;4902519;29;20587;-81
2021/06/16 01:05:41;;;;;;;3.40;3.10;;;19.60;82.20;;;;;;4903071;29;20484;-81
2021/06/16 01:08:08;;;;;;;5.83;4.30;;;19.60;81.90;;;;;;4905049;29;20483;-80
2021/06/16 01:10:40;;;;;;;5.50;3.83;;;19.60;81.90;;;;;;4905544;29;20458;-81
2021/06/16 01:13:11;;;;;;;6.07;5.03;;;19.60;82.60;;;;;;4888504;29;20455;-79
2021/06/16 01:15:46;;;;;;;3.87;3.57;;;19.60;82.90;;;;;;4905752;29;20454;-80
2021/06/16 01:18:16;;;;;;;4.33;3.73;;;19.60;83.40;;;;;;4905469;29;20485;-80
2021/06/16 01:20:49;;;;;;;4.63;4.23;;;19.60;84.10;;;;;;4903971;29;21005;-80
2021/06/16 01:23:49;;;;;;;4.50;4.13;;;19.50;85.30;;;;;;4901974;29;20558;-83
2021/06/16 01:26:24;;;;;;;5.20;4.80;;;19.50;86.90;;;;;;4902827;29;21034;-83
2021/06/16 01:28:55;;;;;;;5.07;4.70;;;19.50;88.20;;;;;;4901840;29;20475;-82
2021/06/16 01:31:23;;;;;;;5.50;4.60;;;19.50;89.50;;;;;;4901777;29;20462;-83
2021/06/16 01:33:51;;;;;;;5.30;5.00;;;19.50;90.30;;;;;;4902566;29;20467;-80
2021/06/16 01:36:18;;;;;;;5.43;5.00;;;19.40;90.60;;;;;;4904334;29;20472;-79
2021/06/16 01:38:46;;;;;;;5.30;4.77;;;19.40;91.10;;;;;;4906556;29;20483;-80
2021/06/16 01:41:16;;;;;;;5.60;5.13;;;19.40;91.40;;;;;;4906172;29;20497;-80
2021/06/16 01:43:45;;;;;;;4.37;4.07;;;19.40;91.70;;;;;;4901241;29;20455;-81
2021/06/16 01:46:13;;;;;;;4.70;4.30;;;19.40;92.00;;;;;;4901519;29;20484;-80
2021/06/16 01:51:20;;;;;;;4.17;3.77;;;19.30;92.00;;;;;;4823813;29;20483;-82
2021/06/16 01:56:48;;;;;;;4.20;3.90;;;19.30;91.80;;;;;;4808198;29;20474;-82
2021/06/16 01:59:17;;;;;;;5.03;4.43;;;19.20;91.90;;;;;;4827261;29;20477;-82
2021/06/16 02:01:53;;;;;;;5.00;4.60;;;19.20;92.10;;;;;;4830581;29;20533;-82
2021/06/16 02:04:29;;;;;;;4.60;4.20;;;19.20;92.60;;;;;;4828020;29;20972;-82
2021/06/16 02:07:09;;;;;;;4.77;4.13;;;19.20;92.80;;;;;;4828478;29;20550;-82
2021/06/16 02:09:58;;;;;;;4.43;4.10;;;19.10;92.80;;;;;;4826054;29;20484;-82
2021/06/16 02:12:27;;;;;;;5.30;4.50;;;19.10;93.10;;;;;;4825842;29;20575;-82
2021/06/16 02:15:05;;;;;;;6.63;4.93;;;19.10;93.60;;;;;;4826673;29;20937;-82
2021/06/16 02:17:39;;;;;;;5.27;4.73;;;19.10;93.40;;;;;;4827196;29;20463;-82
2021/06/16 02:20:11;;;;;;;4.53;4.23;;;19.10;93.50;;;;;;4828138;29;20478;-82
2021/06/16 02:22:52;;;;;;;4.60;4.10;;;19.10;93.90;;;;;;4827630;29;20455;-82
2021/06/16 02:25:23;;;;;;;5.53;5.03;;;19.00;94.20;;;;;;4825930;29;20459;-82
2021/06/16 02:27:56;;;;;;;5.00;4.63;;;19.00;94.50;;;;;;4825268;29;20443;-82
2021/06/16 02:30:26;;;;;;;6.20;4.93;;;19.00;94.70;;;;;;4826869;29;20915;-82
2021/06/16 02:32:54;;;;;;;5.60;5.10;;;19.00;94.80;;;;;;4833091;29;20458;-83
2021/06/16 02:35:29;;;;;;;4.70;4.30;;;18.90;94.90;;;;;;4835668;29;20459;-82
2021/06/16 02:38:08;;;;;;;4.47;4.07;;;18.90;95.40;;;;;;4834859;29;20979;-82
2021/06/16 02:40:43;;;;;;;7.77;4.90;;;18.90;95.20;;;;;;4831951;29;20483;-83
2021/06/16 02:43:14;;;;;;;4.53;4.13;;;18.90;95.40;;;;;;4832064;29;20547;-82
2021/06/16 02:45:58;;;;;;;5.30;4.70;;;18.90;95.70;;;;;;4831497;29;20465;-82
2021/06/16 02:48:27;;;;;;;7.00;4.40;;;18.80;95.70;;;;;;4824333;29;20523;-82
2021/06/16 02:51:06;;;;;;;5.53;5.13;;;18.80;95.90;;;;;;4830273;29;20479;-82
2021/06/16 02:53:49;;;;;;;6.10;5.60;;;18.80;95.80;;;;;;4830529;29;20461;-82
2021/06/16 02:56:17;;;;;;;5.13;4.73;;;18.80;95.90;;;;;;4829028;29;21126;-82
2021/06/16 02:58:50;;;;;;;6.30;4.30;;;18.80;96.10;;;;;;4824132;29;20454;-82
2021/06/16 03:01:27;;;;;;;4.83;4.43;;;18.80;96.20;;;;;;4823943;29;20588;-82
2021/06/16 03:04:07;;;;;;;6.00;5.60;;;18.80;96.50;;;;;;4824645;29;20839;-82
2021/06/16 03:06:43;;;;;;;4.60;4.20;;;18.70;96.60;;;;;;4827636;29;20849;-82
2021/06/16 03:09:13;;;;;;;5.40;4.40;;;18.70;96.90;;;;;;4828019;29;20493;-82
2021/06/16 03:11:40;;;;;;;4.60;4.30;;;18.70;97.10;;;;;;4827410;29;20462;-82
2021/06/16 03:14:07;;;;;;;5.30;4.90;;;18.70;97.60;;;;;;4827947;29;20470;-82
2021/06/16 03:16:35;;;;;;;5.50;5.10;;;18.70;97.40;;;;;;4828105;29;20459;-82
2021/06/16 03:19:04;;;;;;;8.40;5.30;;;18.70;97.50;;;;;;4827913;29;20490;-82
2021/06/16 03:21:31;;;;;;;4.80;4.47;;;18.70;97.40;;;;;;4827710;29;20501;-82
2021/06/16 03:24:00;;;;;;;5.27;4.87;;;18.60;97.20;;;;;;4828601;29;20459;-82
2021/06/16 03:26:28;;;;;;;5.30;4.90;;;18.60;97.40;;;;;;4828331;29;20450;-82
2021/06/16 03:28:56;;;;;;;5.40;4.90;;;18.60;97.60;;;;;;4828413;29;20478;-82
2021/06/16 03:31:23;;;;;;;6.57;5.80;;;18.50;97.60;;;;;;4828122;29;20462;-82
2021/06/16 03:33:52;;;;;;;5.93;5.43;;;18.50;97.90;;;;;;4827881;29;20462;-82
2021/06/16 03:36:21;;;;;;;5.10;4.70;;;18.50;98.00;;;;;;4828336;29;20465;-82
2021/06/16 03:38:50;;;;;;;5.83;5.33;;;18.50;98.10;;;;;;4828458;29;20462;-82
2021/06/16 03:41:17;;;;;;;4.83;4.43;;;18.50;98.30;;;;;;4828183;29;20523;-82
2021/06/16 03:43:46;;;;;;;4.67;4.37;;;18.50;98.10;;;;;;4827619;29;20469;-82
2021/06/16 03:46:13;;;;;;;5.43;4.80;;;18.40;98.00;;;;;;4828109;29;20462;-82
2021/06/16 03:48:41;;;;;;;5.70;5.20;;;18.50;98.10;;;;;;4827471;29;20457;-82
2021/06/16 03:51:09;;;;;;;5.27;4.77;;;18.50;98.30;;;;;;4827708;29;20450;-82
2021/06/16 03:53:37;;;;;;;5.97;5.50;;;18.40;98.40;;;;;;4827219;29;20462;-82
2021/06/16 03:56:05;;;;;;;6.37;5.90;;;18.40;98.60;;;;;;4827781;29;20944;-82
2021/06/16 03:58:33;;;;;;;6.20;5.60;;;18.40;98.80;;;;;;4827121;29;20454;-85
2021/06/16 04:01:00;;;;;;;4.77;4.33;;;18.40;98.90;;;;;;4825622;29;20500;-84
2021/06/16 04:03:27;;;;;;;5.50;5.03;;;18.40;99.00;;;;;;4825467;29;20466;-84
2021/06/16 04:05:54;;;;;;;5.97;5.40;;;18.50;99.20;;;;;;4825779;29;20466;-84
2021/06/16 04:08:23;;;;;;;4.50;4.20;;;18.50;99.30;;;;;;4825353;29;20940;-84
2021/06/16 04:10:52;;;;;;;5.53;5.00;;;18.50;99.40;;;;;;4825389;29;20482;-84
2021/06/16 04:13:19;;;;;;;6.23;5.50;;;18.60;99.60;;;;;;4825145;29;20462;-84
2021/06/16 04:15:46;;;;;;;6.07;5.47;;;18.60;99.60;;;;;;4824342;29;20463;-84
2021/06/16 04:18:13;;;;;;;5.60;5.10;;;18.60;99.70;;;;;;4825749;29;20458;-84
2021/06/16 04:20:40;;;;;;;5.73;4.73;;;18.60;99.70;;;;;;4825276;29;20489;-85
2021/06/16 04:23:07;;;;;;;5.10;4.63;;;18.70;99.80;;;;;;4825188;29;20501;-84
2021/06/16 04:25:35;;;;;;;6.57;5.00;;;18.70;99.90;;;;;;4825125;29;20838;-84
2021/06/16 04:28:02;;;;;;;6.80;6.30;;;18.80;99.90;;;;;;4825139;29;20497;-84
2021/06/16 04:30:29;;;;;;;5.97;5.47;;;18.80;99.90;;;;;;4825334;29;20493;-84
2021/06/16 04:32:56;;;;;;;5.43;5.03;;;18.80;99.70;;;;;;4825227;29;20852;-84
2021/06/16 04:35:22;;;;;;;5.37;4.90;;;18.80;99.50;;;;;;4825168;29;20461;-84
2021/06/16 04:37:49;;;;;;;5.33;4.93;;;18.90;99.50;;;;;;4825248;29;20462;-84
2021/06/16 04:40:17;;;;;;;5.57;5.17;;;18.90;99.60;;;;;;4825058;29;20489;-85
2021/06/16 04:42:45;;;;;;;7.00;6.07;;;19.00;99.70;;;;;;4824773;29;20497;-84
2021/06/16 04:45:13;;;;;;;6.77;5.90;;;18.90;99.60;;;;;;4825397;29;20467;-84
2021/06/16 04:47:39;;;;;;;6.90;6.20;;;19.00;99.60;;;;;;4824902;29;20528;-84
2021/06/16 04:50:09;;;;;;;9.10;5.60;;;19.10;99.50;;;;;;4824749;29;20497;-83
2021/06/16 04:52:36;;;;;;;6.10;5.60;;;19.10;99.20;;;;;;4824588;29;20458;-84
2021/06/16 04:55:04;;;;;;;7.20;5.77;;;19.20;99.30;;;;;;4824638;29;20466;-84
2021/06/16 04:57:31;;;;;;;6.50;5.90;;;19.20;99.30;;;;;;4824637;29;20461;-84
2021/06/16 04:59:59;;;;;;;6.33;5.73;;;19.30;99.40;;;;;;4824894;29;20487;-84
2021/06/16 05:02:26;;;;;;;7.43;6.40;;;19.30;99.30;;;;;;4824417;29;20589;-84
2021/06/16 05:04:53;;;;;;;7.90;7.30;;;19.40;99.10;;;;;;4824462;29;20474;-84
2021/06/16 05:07:20;;;;;;;7.17;6.47;;;19.50;99.00;;;;;;4824668;29;20459;-84
2021/06/16 05:09:46;;;;;;;6.40;5.73;;;19.50;99.10;;;;;;4824418;29;20851;-84
2021/06/16 05:12:13;;;;;;;6.60;6.00;;;19.60;99.00;;;;;;4824379;29;20465;-84
2021/06/16 05:14:40;;;;;;;9.93;7.30;;;19.70;99.00;;;;;;4825390;29;20471;-84
2021/06/16 05:17:08;;;;;;;7.10;6.20;;;19.80;98.90;;;;;;4824453;29;20458;-84
2021/06/16 05:19:35;;;;;;;6.20;5.73;;;19.90;98.70;;;;;;4824511;29;21071;-84
2021/06/16 05:22:07;;;;;;;7.77;7.07;;;20.00;98.70;;;;;;4824139;29;20499;-84
2021/06/16 05:24:33;;;;;;;7.70;7.17;;;20.10;98.50;;;;;;4824202;29;20470;-84
2021/06/16 05:27:00;;;;;;;8.17;7.37;;;20.20;98.30;;;;;;4824144;29;20473;-84
2021/06/16 05:29:27;;;;;;;8.13;7.53;;;20.20;98.00;;;;;;4824429;29;20512;-84
2021/06/16 05:31:54;;;;;;;7.17;6.63;;;20.30;98.00;;;;;;4825076;29;20461;-84
2021/06/16 05:34:22;;;;;;;7.50;6.10;;;20.40;98.00;;;;;;4824338;29;20463;-84
2021/06/16 05:36:49;;;;;;;11.90;7.40;;;20.50;98.10;;;;;;4823963;29;20541;-83
2021/06/16 05:39:16;;;;;;;9.17;6.40;;;20.60;98.10;;;;;;4824172;29;20490;-85
2021/06/16 05:41:42;;;;;;;7.10;6.57;;;20.70;98.00;;;;;;4824132;29;20495;-84
2021/06/16 05:44:09;;;;;;;6.00;5.60;;;20.70;97.90;;;;;;4824018;29;20906;-84
2021/06/16 05:46:36;;;;;;;6.17;5.53;;;20.80;97.80;;;;;;4824184;29;20472;-84
2021/06/16 05:49:03;;;;;;;7.77;6.23;;;20.90;97.60;;;;;;4824110;29;20500;-84
2021/06/16 05:51:31;;;;;;;6.57;5.80;;;20.90;97.30;;;;;;4823829;29;20478;-84
2021/06/16 05:53:58;;;;;;;6.77;6.17;;;21.00;97.00;;;;;;4824120;29;20888;-84
2021/06/16 05:56:24;;;;;;;5.73;5.30;;;21.10;96.40;;;;;;4823998;29;20469;-84
2021/06/16 05:58:51;;;;;;;6.37;5.80;;;21.10;95.90;;;;;;4823852;29;20468;-84
2021/06/16 06:01:18;;;;;;;5.43;5.13;;;21.20;95.30;;;;;;4824132;29;20462;-85
2021/06/16 06:03:45;;;;;;;7.23;5.60;;;21.30;95.20;;;;;;4823638;29;20530;-84
2021/06/16 06:06:11;;;;;;;5.43;4.90;;;21.40;95.10;;;;;;4825255;29;20466;-82
2021/06/16 06:08:39;;;;;;;6.83;6.33;;;21.50;94.60;;;;;;4829670;29;20951;-82
2021/06/16 06:11:06;;;;;;;6.40;4.83;;;21.50;94.40;;;;;;4830047;29;20476;-83
2021/06/16 06:13:33;;;;;;;6.77;6.10;;;21.60;94.80;;;;;;4829658;29;20848;-82
2021/06/16 06:15:59;;;;;;;7.00;6.07;;;21.70;94.60;;;;;;4834664;29;20476;-80
2021/06/16 06:18:26;;;;;;;6.37;5.10;;;21.80;94.20;;;;;;4837298;29;20457;-82
2021/06/16 06:20:53;;;;;;;6.53;5.73;;;21.90;94.30;;;;;;4837186;29;20485;-80
2021/06/16 06:23:20;;;;;;;5.17;4.67;;;22.00;94.90;;;;;;4838083;29;20493;-80
2021/06/16 06:25:48;;;;;;;6.60;6.00;;;22.10;94.80;;;;;;4831480;29;20455;-83
2021/06/16 06:28:15;;;;;;;7.53;5.93;;;22.20;94.80;;;;;;4828986;29;20470;-81
2021/06/16 06:30:42;;;;;;;5.40;4.90;;;22.20;94.70;;;;;;4828760;29;20475;-82
2021/06/16 06:33:09;;;;;;;7.17;5.80;;;22.40;94.50;;;;;;4829124;29;20462;-82
2021/06/16 06:35:35;;;;;;;6.00;5.40;;;22.40;94.00;;;;;;4829018;29;20462;-83
2021/06/16 06:38:03;;;;;;;10.90;5.87;;;22.50;93.90;;;;;;4828011;29;20999;-81
2021/06/16 06:40:30;;;;;;;8.17;5.80;;;22.60;94.20;;;;;;4827224;29;20489;-83
2021/06/16 06:42:58;;;;;;;11.20;6.20;;;22.70;94.20;;;;;;4826711;29;20501;-83
2021/06/16 06:45:25;;;;;;;10.23;5.53;;;22.70;94.00;;;;;;4826016;29;20467;-84
2021/06/16 06:47:53;;;;;;;7.67;5.50;;;22.80;94.00;;;;;;4825943;29;20474;-84
2021/06/16 06:50:20;;;;;;;7.53;5.30;;;22.90;93.30;;;;;;4825988;29;20497;-84
2021/06/16 06:52:48;;;;;;;6.87;4.80;;;23.00;92.80;;;;;;4832009;29;20443;-84
2021/06/16 06:55:16;;;;;;;8.60;5.07;;;23.00;92.00;;;;;;4846690;29;20850;-85
2021/06/16 06:57:43;;;;;;;6.03;5.53;;;23.00;91.40;;;;;;4838856;29;20455;-83
2021/06/16 07:00:13;;;;;;;7.30;4.60;;;23.20;91.80;;;;;;4846837;29;20488;-84
2021/06/16 07:02:42;;;;;;;5.93;5.10;;;23.30;91.30;;;;;;4835148;29;20499;-84
2021/06/16 07:05:13;;;;;;;5.00;4.30;;;23.40;90.90;;;;;;4826126;29;20519;-83
2021/06/16 07:07:40;;;;;;;5.20;4.70;;;23.50;91.10;;;;;;4823235;29;20460;-84
2021/06/16 07:10:08;;;;;;;7.27;3.80;;;23.60;91.50;;;;;;4823078;29;20494;-83
2021/06/16 07:12:35;;;;;;;5.60;4.30;;;23.70;90.50;;;;;;4824249;29;20955;-84
2021/06/16 07:15:03;;;;;;;6.40;4.80;;;23.80;90.80;;;;;;4826756;29;20491;-84
2021/06/16 07:17:36;;;;;;;6.27;4.63;;;23.90;91.60;;;;;;4825920;29;20471;-84
2021/06/16 07:20:05;;;;;;;4.97;4.50;;;24.00;90.70;;;;;;4828504;29;20855;-86
2021/06/16 07:22:33;;;;;;;5.17;4.30;;;24.20;89.20;;;;;;4845439;29;20479;-84
2021/06/16 07:25:00;;;;;;;4.40;3.93;;;24.20;88.60;;;;;;4842761;29;20454;-84
2021/06/16 07:27:27;;;;;;;7.13;4.67;;;24.30;88.60;;;;;;4842281;29;20462;-83
2021/06/16 07:29:55;;;;;;;5.37;4.50;;;24.40;89.30;;;;;;4842798;29;20474;-83
2021/06/16 07:32:22;;;;;;;4.23;3.93;;;24.50;89.50;;;;;;4827244;29;20962;-86
2021/06/16 07:34:51;;;;;;;4.67;3.60;;;24.60;88.20;;;;;;4825988;29;20460;-84
2021/06/16 07:37:18;;;;;;;5.70;4.33;;;24.70;87.10;;;;;;4843014;29;20450;-84
2021/06/16 07:39:45;;;;;;;5.30;4.90;;;24.70;87.10;;;;;;4844979;29;20490;-84
2021/06/16 07:42:12;;;;;;;4.03;3.73;;;24.70;88.00;;;;;;4845658;29;20470;-86
2021/06/16 07:44:39;;;;;;;5.83;4.80;;;24.80;87.10;;;;;;4846962;29;20463;-84
2021/06/16 07:47:06;;;;;;;8.70;4.87;;;24.90;86.70;;;;;;4846547;29;20469;-85
2021/06/16 07:49:39;;;;;;;7.43;3.90;;;24.90;87.10;;;;;;4941983;23;21743;-81
2021/06/16 07:52:11;;;;;;;5.97;5.43;;;25.10;85.40;;;;;;4884981;29;20560;-83
2021/06/16 07:54:38;;;;;;;6.47;4.40;;;25.10;84.50;;;;;;4885639;29;20462;-80
2021/06/16 07:57:05;;;;;;;5.83;5.30;;;25.20;85.10;;;;;;4885437;29;20552;-80
2021/06/16 07:59:32;;;;;;;4.47;3.83;;;25.30;83.90;;;;;;4885406;29;20481;-80
2021/06/16 08:01:59;;;;;;;4.37;3.97;;;25.30;83.70;;;;;;4885559;29;20453;-83
2021/06/16 08:04:25;;;;;;;7.00;3.60;;;25.40;83.00;;;;;;4885859;29;20465;-81
2021/06/16 08:06:53;;;;;;;5.00;4.03;;;25.50;83.30;;;;;;4886863;29;20456;-82
2021/06/16 08:09:21;;;;;;;4.57;3.77;;;25.60;85.00;;;;;;4888335;29;20471;-84
2021/06/16 08:11:49;;;;;;;5.47;3.70;;;25.70;82.80;;;;;;4889526;29;20781;-83
2021/06/16 08:14:16;;;;;;;4.53;4.07;;;25.80;82.60;;;;;;4889382;29;20454;-83
2021/06/16 08:16:43;;;;;;;5.03;3.50;;;25.90;82.30;;;;;;4887795;29;20479;-85
2021/06/16 08:19:09;;;;;;;3.67;3.37;;;26.00;81.50;;;;;;4885910;29;20455;-83
2021/06/16 08:21:36;;;;;;;3.97;3.67;;;26.10;80.60;;;;;;4887594;29;20465;-87
2021/06/16 08:24:04;;;;;;;4.13;3.73;;;26.10;79.00;;;;;;4890045;29;20505;-83
2021/06/16 08:26:32;;;;;;;4.37;4.07;;;26.20;80.20;;;;;;4886809;29;20467;-82
2021/06/16 08:28:58;;;;;;;4.20;3.80;;;26.30;80.40;;;;;;4899770;29;20458;-82
2021/06/16 08:31:25;;;;;;;3.27;2.90;;;26.40;79.60;;;;;;4904821;29;20448;-83
2021/06/16 08:33:52;;;;;;;4.90;3.33;;;26.50;77.10;;;;;;4902020;29;20461;-83
2021/06/16 08:36:20;;;;;;;4.57;3.60;;;26.60;75.00;;;;;;4904251;29;20471;-82
2021/06/16 08:38:47;;;;;;;5.20;3.40;;;26.70;73.90;;;;;;4903706;29;20462;-82
2021/06/16 08:41:15;;;;;;;3.93;3.37;;;26.70;71.30;;;;;;4903966;29;20478;-83
2021/06/16 08:43:47;;;;;;;3.80;3.47;;;26.70;72.10;;;;;;4903590;29;20495;-82
2021/06/16 08:46:16;;;;;;;4.10;3.70;;;26.70;71.80;;;;;;4904584;29;20462;-83
2021/06/16 08:48:44;;;;;;;4.50;4.20;;;26.80;71.30;;;;;;4904244;29;20464;-83
2021/06/16 08:51:15;;;;;;;3.97;3.70;;;26.90;72.20;;;;;;4904074;29;20497;-82
2021/06/16 08:53:43;;;;;;;4.07;3.67;;;26.90;70.40;;;;;;4904222;29;20465;-83
2021/06/16 08:56:10;;;;;;;6.63;4.30;;;27.00;71.80;;;;;;4904640;29;20465;-83
2021/06/16 08:58:38;;;;;;;4.50;4.10;;;27.20;73.70;;;;;;4903964;29;20464;-81
2021/06/16 09:01:08;;;;;;;5.40;4.37;;;27.20;75.10;;;;;;4904653;29;20491;-82
2021/06/16 09:03:35;;;;;;;4.20;3.90;;;27.40;73.90;;;;;;4904205;29;20491;-83
2021/06/16 09:06:07;;;;;;;6.77;5.00;;;27.50;77.60;;;;;;4904468;29;20462;-83
2021/06/16 09:08:49;;;;;;;4.77;3.77;;;27.70;75.90;;;;;;4904023;29;20547;-82
2021/06/16 09:11:16;;;;;;;4.50;4.10;;;27.80;71.70;;;;;;4904019;29;20935;-83
2021/06/16 09:13:43;;;;;;;4.50;3.77;;;27.90;69.10;;;;;;4902889;29;20790;-83
2021/06/16 09:16:27;;;;;;;4.53;3.93;;;27.90;68.70;;;;;;4904333;29;20488;-82
2021/06/16 09:18:55;;;;;;;4.27;3.97;;;28.00;65.90;;;;;;4903742;29;20458;-83
2021/06/16 09:21:39;;;;;;;5.57;3.90;;;28.00;67.20;;;;;;4903348;29;20481;-83
2021/06/16 09:24:07;;;;;;;4.90;4.40;;;28.10;65.30;;;;;;4904170;29;20528;-82
2021/06/16 09:26:36;;;;;;;4.80;3.50;;;28.10;68.20;;;;;;4903679;29;20457;-82
2021/06/16 09:29:03;;;;;;;4.50;4.10;;;28.20;67.60;;;;;;4905705;29;20467;-84
2021/06/16 09:31:40;;;;;;;6.33;3.77;;;28.30;71.30;;;;;;4899687;29;20454;-81
2021/06/16 09:34:09;;;;;;;4.83;4.43;;;28.40;69.80;;;;;;4882687;29;20451;-83
2021/06/16 09:36:51;;;;;;;4.67;4.27;;;28.50;72.00;;;;;;4885144;29;20459;-82
2021/06/16 09:39:52;;;;;;;6.30;4.27;;;28.70;72.30;;;;;;4880657;29;20443;-83
2021/06/16 10:03:34;;;;;;;5.17;4.00;;;29.90;65.70;;;;;;4719355;30;20495;-82
2021/06/16 10:06:10;;;;;;;9.43;4.20;;;30.00;63.90;;;;;;4767819;29;20458;-81
2021/06/16 10:22:01;;;;;;;4.80;4.23;;;30.80;62.90;;;;;;4666851;30;20514;-81
2021/06/16 10:24:30;;;;;;;4.73;4.30;;;30.90;59.70;;;;;;4863994;29;20487;-83
2021/06/16 10:27:01;;;;;;;5.67;4.33;;;31.00;66.60;;;;;;4865100;29;20443;-82
2021/06/16 10:29:30;;;;;;;4.87;4.33;;;31.10;63.60;;;;;;4866108;29;20825;-82
2021/06/16 10:32:03;;;;;;;5.40;4.10;;;31.30;62.40;;;;;;4864771;29;20464;-83
2021/06/16 10:35:01;;;;;;;4.70;4.30;;;31.50;61.50;;;;;;4865346;29;20464;-83
2021/06/16 10:37:31;;;;;;;4.33;3.90;;;31.70;58.80;;;;;;4865547;29;20456;-83
2021/06/16 10:40:26;;;;;;;4.53;3.97;;;31.90;58.00;;;;;;4866128;29;20483;-83
2021/06/16 10:43:18;;;;;;;4.23;3.70;;;32.10;60.30;;;;;;4842651;29;20462;-83
2021/06/16 10:45:51;;;;;;;5.90;4.90;;;32.20;59.20;;;;;;4865900;29;20517;-82
2021/06/16 10:48:18;;;;;;;8.00;4.67;;;32.10;56.00;;;;;;4868073;29;20454;-79
2021/06/16 10:51:02;;;;;;;4.70;4.40;;;32.30;58.40;;;;;;4876384;29;20550;-80
2021/06/16 10:53:30;;;;;;;4.67;4.30;;;32.40;57.80;;;;;;4874531;29;20456;-83
2021/06/16 10:56:06;;;;;;;4.93;3.63;;;32.60;56.30;;;;;;4865453;29;20493;-83
2021/06/16 10:58:34;;;;;;;4.57;4.27;;;32.70;57.90;;;;;;4865853;29;20546;-83
2021/06/16 11:01:12;;;;;;;4.67;4.23;;;33.00;56.20;;;;;;4865426;29;20484;-82
2021/06/16 11:04:04;;;;;;;3.93;3.63;;;33.20;52.90;;;;;;4864774;29;21026;-83
2021/06/16 11:06:37;;;;;;;6.23;4.30;;;33.30;51.90;;;;;;4865567;29;20531;-82
2021/06/16 11:09:08;;;;;;;4.93;4.53;;;33.40;53.50;;;;;;4864905;29;20464;-82
2021/06/16 11:12:07;;;;;;;3.60;3.40;;;33.50;51.70;;;;;;4865035;29;20480;-83
2021/06/16 11:14:50;;;;;;;4.40;4.10;;;33.60;51.10;;;;;;4864940;29;20465;-83
2021/06/16 11:17:48;;;;;;;4.60;4.17;;;34.00;53.60;;;;;;4865603;29;20461;-83
2021/06/16 11:20:22;;;;;;;4.83;4.37;;;34.50;53.40;;;;;;4865513;29;20538;-83
2021/06/16 11:22:51;;;;;;;5.90;4.33;;;35.10;51.90;;;;;;4864826;29;20956;-83
2021/06/16 11:25:35;;;;;;;5.03;4.40;;;35.70;50.60;;;;;;4865977;29;20585;-82
2021/06/16 11:28:15;;;;;;;4.13;3.73;;;36.30;48.00;;;;;;4869238;29;20465;-83
2021/06/16 11:30:48;;;;;;;4.10;3.80;;;36.80;46.90;;;;;;4869341;29;20579;-82
2021/06/16 11:33:31;;;;;;;4.53;4.17;;;37.00;46.40;;;;;;4868990;29;20476;-83
2021/06/16 11:35:59;;;;;;;4.83;4.43;;;37.30;46.20;;;;;;4869289;29;20492;-83
2021/06/16 11:38:32;;;;;;;4.53;4.13;;;37.50;46.00;;;;;;4869352;29;20516;-82
2021/06/16 11:41:06;;;;;;;5.70;4.03;;;37.90;47.40;;;;;;4868580;29;20533;-83
2021/06/16 11:43:36;;;;;;;4.43;4.03;;;38.30;43.20;;;;;;4869388;29;20534;-83
2021/06/16 11:46:05;;;;;;;5.33;4.97;;;38.50;43.90;;;;;;4869333;29;20457;-83
2021/06/16 11:48:32;;;;;;;5.27;4.87;;;38.90;43.70;;;;;;4868546;29;20476;-83
2021/06/16 11:50:59;;;;;;;5.87;4.87;;;39.20;44.60;;;;;;4868584;29;20485;-83
2021/06/16 11:54:22;;;;;;;4.30;4.10;;;39.60;43.50;;;;;;4868031;29;20453;-82
2021/06/16 11:57:09;;;;;;;4.90;4.50;;;40.00;39.80;;;;;;4868397;29;20970;-81
2021/06/16 11:59:39;;;;;;;5.13;3.90;;;40.20;40.30;;;;;;4874510;29;20475;-82
2021/06/16 12:02:08;;;;;;;4.50;4.10;;;40.10;39.10;;;;;;4886444;29;20456;-82
2021/06/16 12:04:48;;;;;;;4.20;3.80;;;40.10;37.70;;;;;;4887024;29;21395;-82
2021/06/16 12:07:50;;;;;;;5.20;3.97;;;40.00;37.20;;;;;;4885285;29;20456;-85
2021/06/16 12:13:50;;;;;;;4.00;3.70;;;40.30;36.60;;;;;;4863689;29;20448;-85
2021/06/16 12:17:10;;;;;;;5.43;4.40;;;40.60;36.70;;;;;;4874405;29;20465;-86
2021/06/16 12:20:06;;;;;;;4.33;4.03;;;40.80;35.40;;;;;;4881397;29;20484;-86
2021/06/16 12:26:27;;;;;;;4.50;4.10;;;40.80;34.60;;;;;;4875458;29;20551;-87
2021/06/16 12:28:58;;;;;;;4.23;4.03;;;40.80;34.00;;;;;;4879229;29;20508;-86
2021/06/16 12:32:03;;;;;;;4.63;4.23;;;40.90;34.00;;;;;;4880607;29;20491;-86
2021/06/16 12:35:06;;;;;;;4.57;4.27;;;41.20;36.10;;;;;;4849708;29;20935;-87
2021/06/16 12:41:04;;;;;;;4.17;3.97;;;42.10;33.10;;;;;;4768686;30;20458;-86
2021/06/16 12:53:16;;;;;;;;;;;;;;;;;;;;;
2021/06/16 12:56:07;;;;;;;4.47;4.27;;;42.50;32.10;;;;;;4839913;29;20462;-86
2021/06/16 12:58:51;;;;;;;4.27;3.97;;;42.50;32.30;;;;;;4876491;29;20473;-87
2021/06/16 13:08:11;;;;;;;4.57;4.20;;;42.50;31.40;;;;;;4768054;30;20452;-86
2021/06/16 13:10:40;;;;;;;4.33;3.83;;;42.10;31.00;;;;;;4880321;29;20484;-83
2021/06/16 13:13:15;;;;;;;4.27;4.00;;;41.90;31.90;;;;;;4884093;29;20460;-85
2021/06/16 13:39:30;;;;;;;4.27;3.97;;;41.50;32.30;;;;;;4784722;29;20542;-83
2021/06/16 13:52:30;;;;;;;4.70;4.40;;;41.20;32.60;;;;;;4790705;29;20508;-86
2021/06/16 13:55:41;;;;;;;3.97;3.57;;;41.10;32.80;;;;;;4804138;29;20548;-86
2021/06/16 14:01:20;;;;;;;4.60;4.30;;;41.00;32.80;;;;;;4878783;29;20593;-84
2021/06/16 14:17:11;;;;;;;4.77;4.43;;;41.30;33.50;;;;;;4799550;29;20521;-86
2021/06/16 14:37:10;;;;;;;4.33;4.00;;;43.50;31.00;;;;;;4727099;23;20504;-84
2021/06/16 14:39:37;;;;;;;4.03;3.83;;;43.80;30.20;;;;;;4881765;29;20484;-83
2021/06/16 14:42:04;;;;;;;4.83;4.53;;;44.20;29.50;;;;;;4877267;29;20460;-87
2021/06/16 14:44:35;;;;;;;3.87;3.67;;;44.80;29.40;;;;;;4877838;29;20979;-87
2021/06/16 15:00:01;;;;;;;4.67;4.20;;;47.50;26.70;;;;;;4840252;29;20491;-84
2021/06/16 15:18:58;;;;;;;3.80;3.60;;;48.20;25.60;;;;;;5118431;23;20534;-84
2021/06/16 15:49:05;;;;;;;4.20;3.80;;;48.80;24.70;;;;;;4596817;31;20461;-85
2021/06/16 16:28:02;;;;;;;4.17;3.90;;;49.00;23.20;;;;;;5048506;23;20500;-83
2021/06/16 16:30:39;;;;;;;4.10;3.70;;;49.00;22.80;;;;;;4883109;29;20472;-86
2021/06/16 16:50:58;;;;;;;7.80;7.30;;;48.90;22.50;;;;;;5747060;23;20511;-88
2021/06/16 17:00:08;;;;;;;4.83;4.47;;;48.80;23.20;;;;;;4774012;29;20884;-85
2021/06/16 17:02:35;;;;;;;3.83;3.63;;;49.00;22.70;;;;;;4838726;29;20457;-85
2021/06/16 17:05:02;;;;;;;3.70;3.40;;;49.00;22.60;;;;;;4873814;29;20445;-83
2021/06/16 17:07:29;;;;;;;4.07;3.70;;;49.00;22.50;;;;;;4883130;29;20835;-84
2021/06/16 17:09:56;;;;;;;4.03;3.80;;;49.00;22.70;;;;;;4882701;29;20859;-83
2021/06/16 17:12:23;;;;;;;3.60;3.40;;;48.90;22.80;;;;;;4882963;29;20456;-82
2021/06/16 17:14:50;;;;;;;4.13;3.93;;;48.80;22.90;;;;;;4882978;29;21005;-83
2021/06/16 17:17:18;;;;;;;4.03;3.83;;;48.60;22.80;;;;;;4882910;29;21041;-86
2021/06/16 17:19:45;;;;;;;5.00;4.70;;;48.40;23.20;;;;;;4883276;29;20480;-86
2021/06/16 17:22:11;;;;;;;5.67;5.37;;;48.00;23.10;;;;;;4882956;29;20461;-84